Airfield :
LOGIN :

Register | Disclaimer

   EN    FR    IT 

 










Legend :    VFR   Marginal VFR   IFR   Intensive IFR   Very Intensive IFR
Visi :
Ceiling :
>= 8 km
>= 3000ft
5 to 8 km
1000 to 3000 ft
1500m to 5 km
500 to 1000 ft
800 to 1500m
200 to 500 ft
< 800m
< 200 ft
Symbols :   Thunderstorms  Fog  Heavy snow  Heavy precipitations  Wind > 20 kt
SIGMETs :     Misc.  Thunderstorms  Icing  Turbulence  Mountain Waves  Volcanic Ashes






- Airport Elevation : 778 ft
- IATA code : BRQ


LKTB - Brno-Turany

CURRENT METAR :
  • 130700Z 13013KT 9999 SCT007 OVC009 01/M00 Q0990 R27/29//95 NOSIG

EXPIRED METARs :
  • 130630Z 12008KT 9999 OVC006 01/M00 Q0991 R27/29//95 NOSIG
  • 130600Z 13010KT 8000 OVC005 00/00 Q0991 R27/29//95 NOSIG
  • 130530Z 12006KT 6000 OVC002 00/00 Q0992 R27/590294 NOSIG
  • 130500Z 12006KT 5000 BR OVC002 00/00 Q0993 R27/590294 NOSIG
  • 130448Z 12006KT 6000 OVC002 00/00 Q0993 R27/590294 RMK REG QNH 0984
  • 130430Z 12006KT 6000 OVC004 00/00 Q0993 R27/590294 NOSIG
  • 130420Z 12007KT 5000 -SN BR OVC004 00/M00 Q0993 R27/590294 RMK REG QNH 0984

TAF TAF LKTB
Valid from the 13 at 06:00 until the 14 at 12:00 UTC


130500Z 1306/1412 14010KT 6000 OVC005
TEMPO 1306/1308 3500 SN BR BKN002
BECMG 1308/1310 9000 BKN020
TEMPO 1310/1315 7000 -SN BKN012
BECMG 1316/1318 16005KT 9999 SCT010 BKN045
BECMG 1321/1400 1000 BR BKN005
TEMPO 1400/1406 0600 FZFG BKN003
BECMG 1407/1409 7000 SCT020
TEMPO 1409/1412 4000 RASN BKN008



MET'MAP, your aeronautical weather chart ! - Copyright ORBIFLY December 2007 - Disclaimer

ORBIFLY MET'MAP TEAM :

Programming & Development : Alexandra Zaïnal
Concept & original design : Baudouin d'Aumeries
Assistance for programming : Marc-Olivier Méhu
Technical & hardware support : Manuel Goepfert

Contact : metmap@orbifly.com




SOURCES & CREDITS :

   NOAA